createdAt,value
2018-06-25T00:00:59.056Z,22.40
2018-06-25T00:03:25.971Z,16.77
2018-06-25T00:05:52.884Z,13.93
2018-06-25T00:08:19.813Z,15.23
2018-06-25T00:10:46.724Z,19.83
2018-06-25T00:13:13.641Z,14.17
2018-06-25T00:15:40.545Z,13.00
2018-06-25T00:18:07.520Z,13.10
2018-06-25T00:20:34.475Z,15.80
2018-06-25T00:23:01.385Z,11.33
2018-06-25T00:25:28.317Z,15.50
2018-06-25T00:27:55.235Z,11.97
2018-06-25T00:30:22.181Z,13.17
2018-06-25T00:32:49.107Z,14.47
2018-06-25T00:35:16.033Z,11.77
2018-06-25T00:37:42.966Z,18.33
2018-06-25T00:40:09.896Z,13.63
2018-06-25T00:42:36.857Z,11.67
2018-06-25T00:45:03.809Z,12.47
2018-06-25T00:47:30.733Z,17.57
2018-06-25T00:49:57.652Z,18.00
2018-06-25T00:52:24.604Z,11.80
2018-06-25T00:54:51.523Z,13.20
2018-06-25T00:57:18.461Z,18.93
2018-06-25T00:59:51.377Z,16.70
2018-06-25T01:02:18.527Z,9.57
2018-06-25T01:04:45.487Z,10.57
2018-06-25T01:07:17.694Z,15.60
2018-06-25T01:09:44.620Z,12.13
2018-06-25T01:12:11.828Z,12.33
2018-06-25T01:14:38.793Z,10.90
2018-06-25T01:17:06.292Z,12.20
2018-06-25T01:19:33.212Z,12.50
2018-06-25T01:22:00.130Z,15.23
2018-06-25T01:24:27.194Z,16.33
2018-06-25T01:26:54.116Z,14.83
2018-06-25T01:29:21.046Z,11.63
2018-06-25T01:31:47.960Z,15.40
2018-06-25T01:34:14.881Z,16.73
2018-06-25T01:36:41.800Z,13.77
2018-06-25T01:39:09.797Z,12.33
2018-06-25T01:41:36.709Z,16.77
2018-06-25T01:44:03.653Z,16.73
2018-06-25T01:46:30.559Z,14.37
2018-06-25T01:48:57.485Z,14.63
2018-06-25T01:51:24.404Z,11.20
2018-06-25T01:53:51.330Z,16.80
2018-06-25T01:56:18.244Z,14.70
2018-06-25T01:58:45.180Z,12.33
2018-06-25T02:01:12.089Z,12.73
2018-06-25T02:03:38.994Z,15.70
2018-06-25T02:06:05.901Z,20.13
2018-06-25T02:08:32.838Z,13.93
2018-06-25T02:10:59.756Z,21.33
2018-06-25T02:13:26.683Z,11.17
2018-06-25T02:15:53.597Z,15.07
2018-06-25T02:18:20.539Z,11.77
2018-06-25T02:20:47.449Z,16.00
2018-06-25T02:23:14.350Z,15.57
2018-06-25T02:25:41.261Z,10.67
2018-06-25T02:28:08.190Z,16.47
2018-06-25T02:30:35.469Z,14.53
2018-06-25T02:33:02.490Z,14.40
2018-06-25T02:35:29.354Z,17.10
2018-06-25T02:37:56.268Z,13.30
2018-06-25T02:40:23.196Z,15.47
2018-06-25T02:42:50.124Z,13.47
2018-06-25T02:45:17.094Z,14.67
2018-06-25T02:47:43.997Z,15.13
2018-06-25T02:50:10.942Z,16.57
2018-06-25T02:52:37.857Z,14.50
2018-06-25T02:55:04.793Z,17.87
2018-06-25T02:57:31.721Z,16.60
2018-06-25T02:59:58.697Z,11.67
2018-06-25T03:02:25.615Z,20.03
2018-06-25T03:04:52.541Z,20.83
2018-06-25T03:07:19.469Z,12.97
2018-06-25T03:09:46.402Z,12.83
2018-06-25T03:12:13.331Z,16.57
2018-06-25T03:14:40.283Z,19.70
2018-06-25T03:17:07.233Z,17.97
2018-06-25T03:19:34.161Z,13.17
2018-06-25T03:22:01.105Z,16.93
2018-06-25T03:24:28.031Z,18.40
2018-06-25T03:26:54.953Z,14.53
2018-06-25T03:29:21.899Z,16.57
2018-06-25T03:31:48.840Z,21.50
2018-06-25T03:34:15.784Z,20.87
2018-06-25T03:36:42.716Z,21.07
2018-06-25T03:39:10.905Z,14.60
2018-06-25T03:41:37.849Z,19.77
2018-06-25T03:44:04.797Z,15.57
2018-06-25T03:46:31.742Z,20.87
2018-06-25T03:48:58.677Z,17.90
2018-06-25T03:51:25.633Z,23.50
2018-06-25T03:53:52.573Z,23.77
2018-06-25T03:56:19.524Z,22.40
2018-06-25T03:58:46.451Z,25.03
2018-06-25T04:01:13.402Z,22.10
2018-06-25T04:03:40.328Z,15.70
2018-06-25T04:06:07.281Z,26.63
2018-06-25T04:08:34.214Z,19.97
2018-06-25T04:11:01.166Z,20.17
2018-06-25T04:13:28.100Z,20.70
2018-06-25T04:15:55.025Z,19.90
2018-06-25T04:18:21.969Z,18.47
2018-06-25T04:20:49.010Z,15.90
2018-06-25T04:23:15.857Z,18.50
2018-06-25T04:25:42.830Z,15.73
2018-06-25T04:28:09.757Z,19.50
2018-06-25T04:30:36.712Z,19.97
2018-06-25T04:33:03.740Z,16.80
2018-06-25T04:35:30.722Z,20.13
2018-06-25T04:37:57.673Z,23.77
2018-06-25T04:40:24.601Z,17.10
2018-06-25T04:42:51.543Z,22.03
2018-06-25T04:45:18.481Z,21.73
2018-06-25T04:47:45.448Z,13.83
2018-06-25T04:50:12.387Z,17.00
2018-06-25T04:52:39.323Z,18.10
2018-06-25T04:55:06.282Z,15.80
2018-06-25T04:57:33.236Z,17.87
2018-06-25T05:00:00.477Z,16.13
2018-06-25T05:02:27.414Z,17.17
2018-06-25T05:04:54.357Z,17.43
2018-06-25T05:07:21.303Z,16.23
2018-06-25T05:09:48.243Z,11.67
2018-06-25T05:12:15.187Z,15.73
2018-06-25T05:14:42.126Z,11.50
2018-06-25T05:17:09.066Z,17.83
2018-06-25T05:19:36.014Z,15.20
2018-06-25T05:22:02.968Z,18.37
2018-06-25T05:24:29.893Z,21.60
2018-06-25T05:26:56.865Z,15.83
2018-06-25T05:29:23.805Z,14.67
2018-06-25T05:31:50.757Z,16.07
2018-06-25T05:34:17.717Z,17.27
2018-06-25T05:36:44.668Z,15.23
2018-06-25T05:39:12.021Z,17.00
2018-06-25T05:41:39.280Z,14.33
2018-06-25T05:44:06.343Z,15.93
2018-06-25T05:46:33.297Z,17.50
2018-06-25T05:49:00.230Z,16.83
2018-06-25T05:51:27.172Z,17.20
2018-06-25T05:53:54.093Z,12.57
2018-06-25T05:56:21.205Z,14.87
2018-06-25T05:58:48.117Z,18.77
2018-06-25T06:01:15.057Z,12.80
2018-06-25T06:03:41.997Z,20.07
2018-06-25T06:06:08.933Z,14.87
2018-06-25T06:08:35.859Z,15.40
2018-06-25T06:11:02.813Z,15.60
2018-06-25T06:13:29.737Z,18.90
2018-06-25T06:15:56.708Z,14.50
2018-06-25T06:18:23.646Z,17.30
2018-06-25T06:20:50.597Z,15.97
2018-06-25T06:23:17.527Z,14.80
2018-06-25T06:25:44.464Z,17.63
2018-06-25T06:28:11.397Z,18.57
2018-06-25T06:30:38.385Z,17.53
2018-06-25T06:33:05.458Z,14.97
2018-06-25T06:35:32.373Z,21.57
2018-06-25T06:37:59.331Z,16.70
2018-06-25T06:40:26.919Z,23.50
2018-06-25T06:42:53.885Z,15.17
2018-06-25T06:45:20.852Z,17.40
2018-06-25T06:47:47.752Z,17.13
2018-06-25T06:50:14.677Z,23.07
2018-06-25T06:52:41.617Z,17.17
2018-06-25T06:55:08.590Z,26.10
2018-06-25T06:57:35.612Z,22.77
2018-06-25T07:00:02.522Z,24.17
2018-06-25T07:02:29.461Z,18.80
2018-06-25T07:04:56.402Z,19.80
2018-06-25T07:07:23.373Z,18.27
2018-06-25T07:09:50.285Z,24.60
2018-06-25T07:12:17.209Z,19.33
2018-06-25T07:14:44.144Z,21.40
2018-06-25T07:17:11.062Z,24.90
2018-06-25T07:19:37.968Z,21.47
2018-06-25T07:22:04.888Z,19.17
2018-06-25T07:24:31.813Z,22.03
2018-06-25T07:26:58.770Z,20.30
2018-06-25T07:29:25.713Z,22.47
2018-06-25T07:31:52.646Z,20.10
2018-06-25T07:34:19.596Z,20.63
2018-06-25T07:36:46.553Z,17.77
2018-06-25T07:39:13.514Z,17.93
2018-06-25T07:41:40.464Z,19.60
2018-06-25T07:44:07.409Z,19.93
2018-06-25T07:46:34.366Z,26.77
2018-06-25T07:49:01.350Z,22.93
2018-06-25T07:51:28.304Z,20.57
2018-06-25T07:53:55.254Z,17.27
2018-06-25T07:56:22.205Z,20.03
2018-06-25T07:58:49.149Z,17.97
2018-06-25T08:01:16.075Z,20.10
2018-06-25T08:03:43.072Z,21.47
2018-06-25T08:06:09.953Z,20.90
2018-06-25T08:08:36.926Z,24.40
2018-06-25T08:11:03.872Z,23.37
2018-06-25T08:13:30.800Z,26.60
2018-06-25T08:15:57.725Z,20.07
2018-06-25T08:18:24.689Z,19.97
2018-06-25T08:20:51.611Z,23.30
2018-06-25T08:23:18.540Z,20.43
2018-06-25T08:25:45.474Z,19.97
2018-06-25T08:28:12.417Z,20.03
2018-06-25T08:30:39.351Z,21.50
2018-06-25T08:33:06.297Z,19.83
2018-06-25T08:35:33.262Z,21.53
2018-06-25T08:38:00.193Z,18.50
2018-06-25T08:40:27.117Z,14.20
2018-06-25T08:42:54.021Z,19.20
2018-06-25T08:45:20.951Z,21.60
2018-06-25T08:47:47.873Z,20.07
2018-06-25T08:50:14.781Z,16.93
2018-06-25T08:52:41.695Z,15.60
2018-06-25T08:55:08.637Z,14.27
2018-06-25T08:57:35.582Z,17.63
2018-06-25T09:00:02.525Z,17.37
2018-06-25T09:02:29.461Z,16.80
2018-06-25T09:04:56.377Z,19.37
2018-06-25T09:07:23.329Z,16.00
2018-06-25T09:09:50.300Z,18.63
2018-06-25T09:12:17.192Z,15.00
2018-06-25T09:14:44.141Z,15.63
2018-06-25T09:17:11.114Z,26.80
2018-06-25T09:19:38.054Z,17.47
2018-06-25T09:22:05.097Z,19.47
2018-06-25T09:24:31.999Z,22.50
2018-06-25T09:26:58.897Z,21.70
2018-06-25T09:29:25.849Z,19.77
2018-06-25T09:31:52.769Z,19.47
2018-06-25T09:34:25.421Z,20.37
2018-06-25T09:36:52.368Z,19.10
2018-06-25T09:39:19.309Z,24.37
2018-06-25T09:41:46.601Z,17.10
2018-06-25T09:44:13.186Z,17.63
2018-06-25T09:46:40.149Z,14.77
2018-06-25T09:49:07.082Z,19.27
2018-06-25T09:51:34.020Z,18.97
2018-06-25T09:54:01.008Z,18.87
2018-06-25T09:56:27.944Z,17.77
2018-06-25T09:58:54.905Z,14.50
2018-06-25T10:01:21.837Z,21.90
2018-06-25T10:03:48.801Z,18.77
2018-06-25T10:06:15.760Z,18.07
2018-06-25T10:08:42.698Z,20.63
2018-06-25T10:11:09.625Z,20.53
2018-06-25T10:13:36.590Z,20.50
2018-06-25T10:16:03.545Z,20.63
2018-06-25T10:18:30.496Z,16.20
2018-06-25T10:20:57.516Z,15.80
2018-06-25T10:23:24.722Z,20.30
2018-06-25T10:25:51.662Z,15.30
2018-06-25T10:28:18.598Z,19.03
2018-06-25T10:30:45.559Z,17.43
2018-06-25T10:33:12.480Z,18.07
2018-06-25T10:35:39.412Z,21.03
2018-06-25T10:38:06.371Z,20.33
2018-06-25T10:40:33.306Z,24.70
2018-06-25T10:43:00.233Z,18.23
2018-06-25T10:45:27.208Z,19.67
2018-06-25T10:47:54.137Z,18.83
2018-06-25T10:50:21.093Z,16.57
2018-06-25T10:52:48.028Z,12.97
2018-06-25T10:55:14.978Z,21.47
2018-06-25T10:57:41.937Z,17.87
2018-06-25T11:00:09.117Z,17.23
2018-06-25T11:02:35.860Z,13.77
2018-06-25T11:05:02.939Z,15.00
2018-06-25T11:07:29.925Z,14.73
2018-06-25T11:09:56.833Z,22.67
2018-06-25T11:12:23.804Z,14.37
2018-06-25T11:14:50.754Z,14.67
2018-06-25T11:17:17.705Z,13.57
2018-06-25T11:19:44.642Z,15.13
2018-06-25T11:22:11.565Z,15.70
2018-06-25T11:24:38.506Z,16.07
2018-06-25T11:27:05.607Z,18.20
2018-06-25T11:29:32.405Z,13.93
2018-06-25T11:31:59.329Z,16.03
2018-06-25T11:34:26.297Z,14.17
2018-06-25T11:36:53.225Z,14.70
2018-06-25T11:39:20.161Z,17.27
2018-06-25T11:41:47.088Z,13.47
2018-06-25T11:44:14.042Z,15.57
2018-06-25T11:46:41.006Z,14.37
2018-06-25T11:49:07.949Z,14.20
2018-06-25T11:51:34.917Z,14.63
2018-06-25T11:54:01.861Z,12.57
2018-06-25T11:56:28.826Z,19.40
2018-06-25T11:58:55.756Z,16.10
2018-06-25T12:01:22.693Z,14.10
2018-06-25T12:03:49.625Z,12.60
2018-06-25T12:06:16.569Z,14.37
2018-06-25T12:08:43.494Z,15.37
2018-06-25T12:11:10.434Z,15.63
2018-06-25T12:13:37.355Z,13.23
2018-06-25T12:16:04.517Z,11.43
2018-06-25T12:18:31.724Z,14.10
2018-06-25T12:20:58.682Z,15.13
2018-06-25T12:23:25.678Z,13.83
2018-06-25T12:25:52.637Z,16.23
2018-06-25T12:28:19.565Z,10.63
2018-06-25T12:30:46.525Z,15.53
2018-06-25T12:33:13.453Z,14.50
2018-06-25T12:35:40.385Z,13.57
2018-06-25T12:38:07.315Z,12.93
2018-06-25T12:40:34.265Z,13.23
2018-06-25T12:43:01.201Z,17.00
2018-06-25T12:45:28.139Z,15.13
2018-06-25T12:47:55.076Z,17.00
2018-06-25T12:50:22.057Z,14.90
2018-06-25T12:52:48.974Z,13.67
2018-06-25T12:55:15.937Z,12.13
2018-06-25T12:57:42.865Z,13.90
2018-06-25T13:00:09.818Z,10.33
2018-06-25T13:02:36.732Z,14.93
2018-06-25T13:05:04.245Z,11.87
2018-06-25T13:07:31.198Z,12.97
2018-06-25T13:09:58.161Z,10.30
2018-06-25T13:12:25.105Z,10.77
2018-06-25T13:14:52.042Z,12.30
2018-06-25T13:17:18.969Z,16.50
2018-06-25T13:19:45.899Z,15.27
2018-06-25T13:22:13.397Z,20.27
2018-06-25T13:24:40.338Z,14.53
2018-06-25T13:27:07.280Z,15.60
2018-06-25T13:29:34.210Z,11.43
2018-06-25T13:32:01.157Z,13.87
2018-06-25T13:34:28.074Z,11.97
2018-06-25T13:36:54.986Z,11.67
2018-06-25T13:39:21.915Z,10.87
2018-06-25T13:41:48.858Z,11.73
2018-06-25T13:44:15.780Z,9.40
2018-06-25T13:46:42.720Z,8.87
2018-06-25T13:49:09.634Z,11.67
2018-06-25T13:51:36.599Z,9.90
2018-06-25T13:54:03.564Z,6.73
2018-06-25T13:56:30.513Z,9.77
2018-06-25T13:58:57.434Z,8.33
2018-06-25T14:01:24.369Z,7.47
2018-06-25T14:03:51.279Z,9.23
2018-06-25T14:06:18.201Z,7.10
2018-06-25T14:08:45.130Z,6.40
2018-06-25T14:11:12.061Z,8.93
2018-06-25T14:13:38.968Z,7.00
2018-06-25T14:16:05.948Z,9.13
2018-06-25T14:18:32.868Z,9.27
2018-06-25T14:20:59.815Z,9.10
2018-06-25T14:23:26.757Z,12.77
2018-06-25T14:25:59.376Z,7.97
2018-06-25T14:28:30.361Z,7.40
2018-06-25T14:31:03.136Z,7.80
2018-06-25T14:33:35.867Z,8.47
2018-06-25T14:36:02.804Z,6.10
2018-06-25T14:38:29.709Z,5.97
2018-06-25T14:40:56.649Z,7.47
2018-06-25T14:43:23.565Z,6.07
2018-06-25T14:45:50.473Z,7.43
2018-06-25T14:48:17.407Z,6.77
2018-06-25T14:50:44.301Z,6.17
2018-06-25T14:53:11.237Z,7.43
2018-06-25T14:55:38.176Z,5.57
2018-06-25T14:58:05.146Z,6.63
2018-06-25T15:00:32.049Z,6.60
2018-06-25T15:02:58.966Z,7.03
2018-06-25T15:05:25.889Z,7.03
2018-06-25T15:07:52.793Z,6.27
2018-06-25T15:10:19.708Z,8.70
2018-06-25T15:12:46.675Z,4.73
2018-06-25T15:15:13.591Z,8.90
2018-06-25T15:17:40.514Z,6.87
2018-06-25T15:20:07.453Z,6.83
2018-06-25T15:22:34.341Z,9.03
2018-06-25T15:25:01.284Z,7.80
2018-06-25T15:27:28.221Z,7.63
2018-06-25T15:29:55.141Z,8.43
2018-06-25T15:32:24.649Z,10.23
2018-06-25T15:34:51.553Z,8.53
2018-06-25T15:37:18.488Z,7.97
2018-06-25T15:39:45.414Z,11.33
2018-06-25T15:42:12.333Z,9.17
2018-06-25T15:44:39.232Z,7.50
2018-06-25T15:47:06.133Z,9.37
2018-06-25T15:49:33.047Z,11.07
2018-06-25T15:51:59.961Z,12.00
2018-06-25T15:54:26.877Z,10.57
2018-06-25T15:56:53.792Z,9.87
2018-06-25T15:59:20.716Z,13.03
2018-06-25T16:01:47.609Z,8.60
2018-06-25T16:04:14.529Z,11.03
2018-06-25T16:06:41.544Z,9.77
2018-06-25T16:09:08.381Z,9.30
2018-06-25T16:11:35.333Z,11.50
2018-06-25T16:14:02.701Z,11.67
2018-06-25T16:16:29.647Z,10.53
2018-06-25T16:18:56.560Z,11.63
2018-06-25T16:21:23.524Z,10.57
2018-06-25T16:23:50.446Z,10.83
2018-06-25T16:26:17.379Z,11.83
2018-06-25T16:28:44.333Z,10.97
2018-06-25T16:31:11.220Z,8.60
2018-06-25T16:33:38.116Z,10.90
2018-06-25T16:36:05.049Z,12.20
2018-06-25T16:38:31.932Z,11.30
2018-06-25T16:40:58.865Z,14.70
2018-06-25T16:43:25.774Z,15.57
2018-06-25T16:45:52.701Z,12.00
2018-06-25T16:48:19.600Z,9.00
2018-06-25T16:50:46.523Z,12.23
2018-06-25T16:53:13.424Z,17.00
2018-06-25T16:55:40.341Z,13.77
2018-06-25T16:58:07.388Z,9.93
2018-06-25T17:00:34.345Z,11.63
2018-06-25T17:03:01.254Z,14.47
2018-06-25T17:05:28.237Z,12.30
2018-06-25T17:07:55.180Z,14.60
2018-06-25T17:10:22.113Z,12.57
2018-06-25T17:13:04.246Z,12.47
2018-06-25T17:15:31.876Z,10.03
2018-06-25T17:17:58.893Z,14.63
2018-06-25T17:20:25.816Z,11.00
2018-06-25T17:22:52.883Z,11.60
2018-06-25T17:25:20.574Z,9.80
2018-06-25T17:27:49.731Z,13.83
2018-06-25T17:30:19.298Z,15.67
2018-06-25T17:33:20.469Z,11.27
2018-06-25T17:35:53.500Z,12.23
2018-06-25T17:39:26.629Z,12.20
2018-06-25T17:45:12.148Z,13.47
2018-06-25T17:47:56.953Z,15.03
2018-06-25T17:50:28.496Z,14.83
2018-06-25T18:24:37.365Z,18.43
2018-06-25T18:27:14.234Z,16.13
2018-06-25T18:29:41.156Z,18.00
2018-06-25T18:32:08.089Z,17.23
2018-06-25T18:34:35.003Z,21.67
2018-06-25T18:37:03.973Z,15.87
2018-06-25T18:39:33.048Z,18.60
2018-06-25T18:42:06.597Z,14.73
2018-06-25T18:44:35.575Z,13.30
2018-06-25T18:47:04.829Z,16.87
2018-06-25T18:49:32.057Z,18.33
2018-06-25T18:51:59.030Z,14.63
2018-06-25T18:54:25.961Z,12.97
2018-06-25T18:56:52.869Z,15.27
2018-06-25T18:59:19.826Z,14.03
2018-06-25T19:01:46.757Z,13.20
2018-06-25T19:04:13.701Z,13.30
2018-06-25T19:06:40.625Z,11.47
2018-06-25T19:09:08.642Z,14.60
2018-06-25T19:11:35.561Z,11.33
2018-06-25T19:14:02.535Z,14.23
2018-06-25T19:16:29.463Z,11.03
2018-06-25T19:18:56.411Z,12.37
2018-06-25T19:21:23.644Z,13.80
2018-06-25T19:23:51.036Z,11.77
2018-06-25T19:26:17.957Z,9.87
2018-06-25T19:28:44.939Z,11.93
2018-06-25T19:31:11.861Z,13.70
2018-06-25T19:33:38.817Z,13.67
2018-06-25T19:36:05.777Z,13.87
2018-06-25T19:38:32.705Z,13.90
2018-06-25T19:40:59.634Z,16.73
2018-06-25T19:43:26.574Z,13.20
2018-06-25T19:45:53.496Z,10.93
2018-06-25T19:48:20.434Z,18.83
2018-06-25T19:50:47.336Z,11.20
2018-06-25T19:53:14.272Z,11.77
2018-06-25T19:55:41.194Z,11.97
2018-06-25T19:58:08.112Z,13.07
2018-06-25T20:00:35.032Z,17.77
2018-06-25T20:03:01.969Z,13.23
2018-06-25T20:05:28.903Z,13.70
2018-06-25T20:07:55.838Z,15.77
2018-06-25T20:10:22.765Z,11.13
2018-06-25T20:12:49.709Z,17.27
2018-06-25T20:15:16.657Z,17.57
2018-06-25T20:17:43.687Z,16.33
2018-06-25T20:20:10.637Z,16.00
2018-06-25T20:22:37.578Z,13.43
2018-06-25T20:25:05.908Z,14.57
2018-06-25T20:27:32.824Z,14.90
2018-06-25T20:29:59.753Z,12.83
2018-06-25T20:32:26.684Z,17.00
2018-06-25T20:34:53.615Z,16.97
2018-06-25T20:37:20.557Z,15.00
2018-06-25T20:39:48.283Z,16.87
2018-06-25T20:42:15.236Z,18.23
2018-06-25T20:44:42.210Z,17.20
2018-06-25T20:47:09.146Z,15.70
2018-06-25T20:49:36.081Z,15.60
2018-06-25T20:52:03.027Z,25.10
2018-06-25T20:54:29.949Z,18.40
2018-06-25T20:56:56.910Z,25.37
2018-06-25T20:59:23.816Z,20.17
2018-06-25T21:01:50.741Z,16.90
2018-06-25T21:04:17.669Z,17.73
2018-06-25T21:06:44.613Z,18.80
2018-06-25T21:09:12.110Z,21.77
2018-06-25T21:11:39.575Z,17.10
2018-06-25T21:14:06.497Z,16.60
2018-06-25T21:16:33.461Z,18.40
2018-06-25T21:19:00.433Z,18.43
2018-06-25T21:21:27.373Z,18.60
2018-06-25T21:23:54.347Z,14.57
2018-06-25T21:26:21.284Z,20.03
2018-06-25T21:28:48.227Z,15.47
2018-06-25T21:31:15.177Z,15.40
2018-06-25T21:33:42.093Z,19.07
2018-06-25T21:36:09.053Z,19.60
2018-06-25T21:38:35.947Z,18.63
2018-06-25T21:41:02.914Z,18.70
2018-06-25T21:43:29.840Z,17.47
2018-06-25T21:45:56.774Z,18.00
2018-06-25T21:48:23.696Z,20.60
2018-06-25T21:50:50.637Z,17.23
2018-06-25T21:53:17.598Z,19.53
2018-06-25T21:55:44.817Z,19.40
2018-06-25T21:58:11.768Z,19.00
2018-06-25T22:00:49.870Z,22.07
2018-06-25T22:03:16.930Z,18.90
2018-06-25T22:05:43.869Z,15.73
2018-06-25T22:08:11.228Z,14.37
2018-06-25T22:10:38.399Z,14.67
2018-06-25T22:13:05.535Z,15.00
2018-06-25T22:15:32.613Z,13.23
2018-06-25T22:18:00.084Z,23.93
2018-06-25T22:20:27.053Z,18.63
2018-06-25T22:22:54.162Z,19.43
2018-06-25T22:25:21.363Z,16.63
2018-06-25T22:27:48.323Z,16.97
2018-06-25T22:30:15.268Z,22.23
2018-06-25T22:32:42.268Z,15.23
2018-06-25T22:35:09.769Z,17.80
2018-06-25T22:37:36.873Z,21.60
2018-06-25T22:40:03.789Z,23.43
2018-06-25T22:42:30.929Z,27.13
2018-06-25T22:44:58.174Z,18.63
2018-06-25T22:47:25.110Z,16.57
2018-06-25T22:49:52.244Z,20.57
2018-06-25T22:52:19.219Z,16.20
2018-06-25T22:54:46.521Z,15.50
2018-06-25T22:57:13.605Z,19.60
2018-06-25T22:59:40.733Z,15.70
2018-06-25T23:02:08.041Z,17.53
2018-06-25T23:04:35.141Z,16.47
2018-06-25T23:07:02.270Z,15.33
2018-06-25T23:09:29.201Z,15.27
2018-06-25T23:11:56.155Z,17.57
2018-06-25T23:14:23.076Z,11.80
2018-06-25T23:16:50.017Z,13.37
2018-06-25T23:19:16.958Z,16.00
2018-06-25T23:21:43.885Z,18.10
2018-06-25T23:24:10.801Z,12.20
2018-06-25T23:26:37.721Z,16.23
2018-06-25T23:29:04.674Z,20.17
2018-06-25T23:31:31.674Z,16.97
2018-06-25T23:33:58.629Z,16.80
2018-06-25T23:36:25.574Z,17.93
2018-06-25T23:38:52.525Z,17.90
2018-06-25T23:41:19.440Z,18.70
2018-06-25T23:43:46.371Z,19.17
2018-06-25T23:46:13.324Z,16.37
2018-06-25T23:48:40.287Z,18.50
2018-06-25T23:51:07.206Z,15.00
2018-06-25T23:53:34.134Z,21.53
2018-06-25T23:56:01.074Z,19.20
2018-06-25T23:58:28.005Z,22.73
